Time;durP1;ratioP1;P1;durP2;ratioP2;P2;SDS_P1;SDS_P2;PMS_P1;PMS_P2;Temp;Humidity;BMP_temperature;BMP_pressure;BME280_temperature;BME280_humidity;BME280_pressure;Samples;Min_cycle;Max_cycle;Signal;HPM_P1;HPM_P2
2022/06/16 00:01:39;;;;;;;4.63;1.80;;;13.40;99.90;;;;;;5060484;28;20059;-70
2022/06/16 00:04:05;;;;;;;7.15;1.63;;;13.40;99.90;;;;;;5084802;28;20051;-70
2022/06/16 00:06:30;;;;;;;6.53;1.70;;;13.40;99.90;;;;;;5098065;28;20348;-71
2022/06/16 00:08:56;;;;;;;2.47;1.23;;;13.40;99.90;;;;;;5079764;28;20060;-71
2022/06/16 00:11:21;;;;;;;5.88;1.65;;;13.40;99.90;;;;;;5097867;28;20047;-70
2022/06/16 00:13:48;;;;;;;3.17;1.60;;;13.30;99.90;;;;;;5080579;28;20509;-70
2022/06/16 00:16:14;;;;;;;5.10;1.75;;;13.30;99.90;;;;;;5097667;28;20036;-70
2022/06/16 00:18:41;;;;;;;2.88;1.55;;;13.20;99.90;;;;;;5083589;28;20048;-70
2022/06/16 00:21:07;;;;;;;5.63;1.60;;;13.20;99.90;;;;;;5077510;28;20059;-70
2022/06/16 00:23:33;;;;;;;3.92;1.73;;;13.20;99.90;;;;;;5076303;28;20044;-71
2022/06/16 00:25:59;;;;;;;5.50;2.30;;;13.10;99.90;;;;;;5059939;28;20059;-70
2022/06/16 00:28:25;;;;;;;5.80;2.35;;;13.10;99.90;;;;;;5059938;28;20052;-71
2022/06/16 00:30:50;;;;;;;2.70;1.48;;;13.00;99.90;;;;;;5077272;28;20119;-71
2022/06/16 00:33:16;;;;;;;5.05;1.85;;;13.00;99.90;;;;;;5069672;28;20075;-70
2022/06/16 00:35:42;;;;;;;5.82;2.33;;;13.00;99.90;;;;;;5060019;28;20124;-71
2022/06/16 00:38:07;;;;;;;3.63;2.00;;;12.90;99.90;;;;;;5077135;28;20578;-71
2022/06/16 00:40:33;;;;;;;6.18;2.03;;;12.90;99.90;;;;;;5060120;28;20048;-71
2022/06/16 00:42:59;;;;;;;3.85;1.65;;;12.90;99.90;;;;;;5077322;28;20463;-70
2022/06/16 00:45:52;;;;;;;8.05;1.60;;;12.80;99.90;;;;;;5059500;28;20147;-71
2022/06/16 00:48:25;;;;;;;5.75;2.03;;;12.90;99.90;;;;;;5076459;28;20044;-71
2022/06/16 00:51:00;;;;;;;3.20;1.75;;;12.80;99.90;;;;;;5076845;28;20044;-71
2022/06/16 00:53:28;;;;;;;6.35;2.58;;;12.90;99.90;;;;;;5077274;28;20365;-70
2022/06/16 00:55:54;;;;;;;4.22;1.90;;;12.90;99.90;;;;;;5043414;28;20132;-70
2022/06/16 00:58:22;;;;;;;3.72;1.63;;;12.80;99.90;;;;;;5039380;28;20056;-70
2022/06/16 01:00:50;;;;;;;5.10;1.50;;;12.80;99.90;;;;;;5039266;28;20453;-71
2022/06/16 01:06:26;;;;;;;6.03;1.70;;;12.70;99.90;;;;;;5009059;28;20052;-70
2022/06/16 01:08:57;;;;;;;3.70;2.00;;;12.60;99.90;;;;;;5039240;28;20128;-71
2022/06/16 01:14:40;;;;;;;6.20;2.15;;;12.50;99.90;;;;;;5039559;28;20056;-70
2022/06/16 01:17:29;;;;;;;4.80;1.90;;;12.50;99.90;;;;;;5039185;28;20051;-70
2022/06/16 01:20:02;;;;;;;3.28;1.60;;;12.40;99.90;;;;;;5056200;28;20057;-70
2022/06/16 01:23:05;;;;;;;3.03;1.70;;;12.40;99.90;;;;;;5038407;28;20125;-70
2022/06/16 01:25:34;;;;;;;5.60;1.58;;;12.30;99.90;;;;;;5055949;28;20120;-70
2022/06/16 01:28:29;;;;;;;5.03;2.08;;;12.30;99.90;;;;;;5038379;28;20049;-70
2022/06/16 01:30:57;;;;;;;4.28;1.70;;;12.30;99.90;;;;;;5038884;28;20048;-71
2022/06/16 01:33:29;;;;;;;5.68;1.88;;;12.10;99.90;;;;;;5055691;28;20528;-70
2022/06/16 01:36:05;;;;;;;7.07;1.70;;;12.20;99.90;;;;;;5056070;28;20480;-70
2022/06/16 01:38:40;;;;;;;5.07;2.40;;;12.20;99.90;;;;;;5055994;28;20045;-71
2022/06/16 01:41:24;;;;;;;5.85;1.70;;;12.20;99.90;;;;;;5038816;28;20124;-71
2022/06/16 01:44:10;;;;;;;6.25;1.95;;;12.30;99.90;;;;;;5038189;28;20052;-71
2022/06/16 01:46:40;;;;;;;5.80;2.38;;;12.30;99.90;;;;;;5039381;28;20084;-70
2022/06/16 01:49:14;;;;;;;5.22;1.90;;;12.20;99.90;;;;;;5055536;28;20045;-71
2022/06/16 01:51:56;;;;;;;5.93;2.20;;;12.40;99.90;;;;;;5038112;28;20049;-70
2022/06/16 01:54:31;;;;;;;5.25;2.08;;;12.40;99.90;;;;;;5044660;28;20052;-70
2022/06/16 01:57:04;;;;;;;5.38;2.35;;;12.40;99.90;;;;;;5058389;28;20056;-70
2022/06/16 01:59:41;;;;;;;8.70;1.80;;;12.50;99.90;;;;;;5056910;28;20056;-71
2022/06/16 02:02:17;;;;;;;4.75;2.13;;;12.60;99.90;;;;;;5075759;28;20127;-70
2022/06/16 02:04:51;;;;;;;5.72;2.42;;;12.60;99.90;;;;;;5058150;28;20064;-71
2022/06/16 02:07:22;;;;;;;;;;;12.70;99.90;;;;;;5075806;28;20079;-70
2022/06/16 02:09:51;;;;;;;5.55;2.38;;;12.60;99.90;;;;;;5075081;28;20272;-71
2022/06/16 02:15:29;;;;;;;5.18;2.28;;;12.60;99.90;;;;;;5057908;28;20080;-70
2022/06/16 02:17:56;;;;;;;3.67;2.00;;;12.60;99.90;;;;;;5057729;28;20510;-70
2022/06/16 02:20:27;;;;;;;4.80;1.73;;;12.60;99.90;;;;;;5057260;28;20132;-70
2022/06/16 02:22:53;;;;;;;7.55;2.13;;;12.70;99.90;;;;;;5075416;28;20396;-71
2022/06/16 02:25:18;;;;;;;4.82;1.90;;;12.70;99.90;;;;;;5074627;28;20051;-70
2022/06/16 02:27:44;;;;;;;5.63;2.00;;;12.80;99.90;;;;;;5057576;28;20036;-71
2022/06/16 02:30:10;;;;;;;6.03;2.88;;;12.80;99.90;;;;;;5057495;28;20117;-70
2022/06/16 02:33:05;;;;;;;4.65;2.17;;;12.80;99.90;;;;;;5041066;28;20052;-70
2022/06/16 02:35:37;;;;;;;5.78;2.10;;;12.80;99.90;;;;;;5057391;28;20120;-70
2022/06/16 02:38:14;;;;;;;10.15;2.22;;;12.80;99.90;;;;;;5057817;28;20460;-71
2022/06/16 02:40:55;;;;;;;4.45;1.92;;;12.80;99.90;;;;;;5063768;28;20052;-70
2022/06/16 02:43:51;;;;;;;6.68;1.80;;;12.80;99.90;;;;;;5077268;28;20511;-71
2022/06/16 02:46:30;;;;;;;5.10;2.45;;;12.80;99.90;;;;;;5094977;28;20044;-71
2022/06/16 02:49:23;;;;;;;6.63;1.98;;;12.70;99.90;;;;;;5095143;28;20131;-70
2022/06/16 02:52:07;;;;;;;5.00;2.10;;;12.60;99.90;;;;;;5077397;28;20759;-71
2022/06/16 02:54:47;;;;;;;5.95;2.33;;;12.60;99.90;;;;;;5094722;28;20070;-70
2022/06/16 02:57:20;;;;;;;4.53;1.63;;;12.60;99.90;;;;;;5074888;28;20044;-70
2022/06/16 03:00:00;;;;;;;6.32;2.20;;;12.50;99.90;;;;;;5040801;28;20049;-71
2022/06/16 03:02:27;;;;;;;6.20;2.22;;;12.50;99.90;;;;;;5075028;28;20423;-70
2022/06/16 03:04:57;;;;;;;3.83;2.40;;;12.50;99.90;;;;;;5075073;28;20103;-70
2022/06/16 03:07:24;;;;;;;5.45;2.60;;;12.50;99.90;;;;;;5057094;28;20067;-70
2022/06/16 03:09:50;;;;;;;7.10;2.20;;;12.40;99.90;;;;;;5066207;28;20055;-70
2022/06/16 03:12:16;;;;;;;3.95;2.13;;;12.40;99.90;;;;;;5061553;28;20041;-71
2022/06/16 03:14:43;;;;;;;4.90;2.05;;;12.30;99.90;;;;;;5061040;28;20098;-70
2022/06/16 03:17:10;;;;;;;3.97;2.00;;;12.30;99.90;;;;;;5061541;28;20098;-70
2022/06/16 03:19:36;;;;;;;3.97;1.95;;;12.30;99.90;;;;;;5061157;28;20057;-70
2022/06/16 03:22:03;;;;;;;5.78;2.08;;;12.30;99.90;;;;;;5060983;28;20115;-71
2022/06/16 03:24:29;;;;;;;3.85;2.20;;;12.30;99.90;;;;;;5078305;28;20040;-71
2022/06/16 03:26:55;;;;;;;7.95;2.03;;;12.30;99.90;;;;;;5078517;28;20056;-71
2022/06/16 03:29:21;;;;;;;6.97;2.20;;;12.30;99.90;;;;;;5061515;28;20044;-70
2022/06/16 03:31:46;;;;;;;3.58;1.70;;;12.20;99.90;;;;;;5060895;28;20385;-69
2022/06/16 03:34:12;;;;;;;3.47;1.70;;;12.30;99.90;;;;;;5060634;28;20041;-70
2022/06/16 03:36:38;;;;;;;3.75;2.05;;;12.30;99.90;;;;;;5078362;28;20039;-70
2022/06/16 03:39:05;;;;;;;4.32;1.60;;;12.20;99.90;;;;;;5070761;28;20449;-70
2022/06/16 03:41:31;;;;;;;3.30;2.20;;;12.20;99.90;;;;;;5080462;28;20379;-70
2022/06/16 03:43:58;;;;;;;4.65;2.05;;;12.30;99.90;;;;;;5098465;28;20079;-71
2022/06/16 03:46:24;;;;;;;5.20;2.13;;;12.40;99.90;;;;;;5063920;28;20047;-71
2022/06/16 03:48:50;;;;;;;3.72;1.60;;;12.60;99.90;;;;;;5080514;28;20105;-71
2022/06/16 03:51:16;;;;;;;8.77;2.75;;;12.60;99.90;;;;;;5081426;28;20366;-70
2022/06/16 03:53:42;;;;;;;4.68;1.75;;;12.70;99.90;;;;;;5071746;28;20360;-71
2022/06/16 03:56:10;;;;;;;5.55;2.00;;;12.80;99.90;;;;;;5077156;28;20056;-71
2022/06/16 03:58:40;;;;;;;12.00;2.22;;;12.80;99.90;;;;;;5063106;28;20083;-70
2022/06/16 04:01:06;;;;;;;3.30;1.83;;;12.80;99.90;;;;;;5078917;28;20048;-71
2022/06/16 04:06:16;;;;;;;4.50;2.05;;;12.90;99.90;;;;;;5069390;28;20599;-70
2022/06/16 04:08:42;;;;;;;4.38;1.77;;;13.10;99.90;;;;;;5056353;28;20102;-71
2022/06/16 04:14:04;;;;;;;5.63;2.10;;;13.00;99.90;;;;;;5077142;28;20465;-70
2022/06/16 04:16:36;;;;;;;7.15;2.33;;;13.00;99.90;;;;;;5077720;28;20052;-70
2022/06/16 04:19:02;;;;;;;3.75;2.00;;;13.10;99.90;;;;;;5059938;28;20063;-71
2022/06/16 04:21:27;;;;;;;3.65;2.05;;;13.10;99.90;;;;;;5077390;28;20123;-70
2022/06/16 04:23:53;;;;;;;2.95;1.80;;;13.20;99.90;;;;;;5076618;28;20044;-70
2022/06/16 04:26:18;;;;;;;5.43;2.38;;;13.30;99.90;;;;;;5087497;28;20044;-71
2022/06/16 04:28:44;;;;;;;5.93;2.95;;;13.40;99.90;;;;;;5097756;28;20097;-71
2022/06/16 04:31:10;;;;;;;4.25;2.22;;;13.60;99.90;;;;;;5097514;28;20135;-71
2022/06/16 04:33:36;;;;;;;4.90;3.08;;;13.70;99.90;;;;;;5097456;28;20464;-71
2022/06/16 04:36:02;;;;;;;8.48;3.75;;;13.80;99.90;;;;;;5079457;28;20036;-71
2022/06/16 04:38:28;;;;;;;5.70;2.80;;;14.00;99.90;;;;;;5079384;28;20044;-71
2022/06/16 04:40:53;;;;;;;4.03;2.30;;;14.20;99.90;;;;;;5075252;28;20046;-71
2022/06/16 04:43:19;;;;;;;6.25;3.00;;;14.40;99.90;;;;;;5059503;28;20055;-71
2022/06/16 04:45:45;;;;;;;5.32;3.40;;;14.50;99.90;;;;;;5077079;28;20119;-71
2022/06/16 04:48:11;;;;;;;7.10;3.00;;;14.70;99.90;;;;;;5077182;28;20056;-71
2022/06/16 04:50:37;;;;;;;6.60;2.42;;;14.80;99.90;;;;;;5042629;28;20094;-71
2022/06/16 04:53:03;;;;;;;8.70;2.70;;;15.00;99.90;;;;;;5058913;28;20087;-71
2022/06/16 04:55:30;;;;;;;6.10;2.55;;;15.20;99.90;;;;;;5046988;28;20078;-71
2022/06/16 04:57:56;;;;;;;8.38;3.05;;;15.40;99.90;;;;;;5057053;28;20060;-71
2022/06/16 05:00:22;;;;;;;9.20;3.63;;;15.60;99.90;;;;;;5076958;28;20051;-71
2022/06/16 05:02:47;;;;;;;3.90;2.10;;;15.80;99.90;;;;;;5076680;28;20044;-71
2022/06/16 05:05:13;;;;;;;7.53;2.45;;;16.00;99.90;;;;;;5076576;28;20048;-71
2022/06/16 05:07:39;;;;;;;5.95;2.25;;;16.20;99.90;;;;;;5059013;28;20137;-71
2022/06/16 05:10:06;;;;;;;4.07;1.98;;;16.40;99.90;;;;;;5074351;28;20480;-71
2022/06/16 05:12:32;;;;;;;3.97;2.10;;;16.90;99.90;;;;;;5038894;28;20041;-70
2022/06/16 05:14:58;;;;;;;4.20;1.60;;;17.80;99.90;;;;;;5053176;28;20416;-72
2022/06/16 05:17:23;;;;;;;6.18;1.80;;;19.20;99.90;;;;;;5056501;28;20044;-69
2022/06/16 05:19:49;;;;;;;4.90;2.00;;;19.80;99.90;;;;;;5038716;28;20120;-69
2022/06/16 05:22:15;;;;;;;5.57;2.05;;;19.90;99.90;;;;;;5038757;28;20377;-71
2022/06/16 05:24:40;;;;;;;4.55;1.77;;;19.60;99.90;;;;;;5039460;28;20103;-71
2022/06/16 05:27:07;;;;;;;5.10;1.40;;;19.40;99.90;;;;;;5038878;28;20453;-71
2022/06/16 05:29:32;;;;;;;6.35;1.85;;;19.00;99.90;;;;;;5053395;28;20044;-71
2022/06/16 05:31:58;;;;;;;4.35;1.50;;;18.70;99.90;;;;;;5028358;28;20053;-71
2022/06/16 05:34:24;;;;;;;5.47;2.17;;;18.60;99.90;;;;;;5037484;28;20064;-71
2022/06/16 05:36:49;;;;;;;7.35;1.90;;;18.80;99.90;;;;;;5039380;28;20051;-71
2022/06/16 05:39:15;;;;;;;4.40;1.60;;;18.80;99.90;;;;;;5038390;28;20056;-71
2022/06/16 05:41:41;;;;;;;6.93;1.83;;;18.90;99.90;;;;;;5055988;28;20511;-70
2022/06/16 05:44:08;;;;;;;5.35;1.80;;;19.50;99.90;;;;;;5054922;28;20051;-71
2022/06/16 05:46:35;;;;;;;5.47;1.73;;;19.90;99.90;;;;;;5021785;28;20139;-70
2022/06/16 05:49:01;;;;;;;3.38;1.90;;;20.70;99.90;;;;;;5037979;28;20095;-70
2022/06/16 05:51:27;;;;;;;3.63;1.52;;;21.10;99.90;;;;;;5055254;28;20071;-71
2022/06/16 05:53:52;;;;;;;4.90;1.58;;;21.70;99.90;;;;;;5055989;28;20041;-71
2022/06/16 05:56:18;;;;;;;3.50;1.48;;;22.80;99.90;;;;;;5073273;28;20489;-71
2022/06/16 05:58:44;;;;;;;3.88;1.55;;;23.00;99.90;;;;;;5058330;28;20056;-71
2022/06/16 06:01:10;;;;;;;3.83;1.13;;;22.90;99.50;;;;;;5058274;28;20056;-71
2022/06/16 06:03:38;;;;;;;5.03;1.10;;;22.80;99.90;;;;;;5058505;28;20059;-71
2022/06/16 06:06:04;;;;;;;2.42;1.20;;;23.00;99.50;;;;;;5057983;28;20041;-71
2022/06/16 06:16:54;;;;;;;5.35;0.95;;;23.90;96.80;;;;;;5075164;28;20309;-71
2022/06/16 06:19:23;;;;;;;3.92;0.90;;;24.40;97.00;;;;;;5077421;28;20043;-71
2022/06/16 06:22:06;;;;;;;4.05;1.00;;;24.80;96.40;;;;;;5095411;28;20067;-70
2022/06/16 06:24:32;;;;;;;2.05;1.05;;;25.20;95.90;;;;;;5077760;28;20479;-71
2022/06/16 06:27:00;;;;;;;3.58;1.00;;;25.90;94.30;;;;;;5077950;28;20048;-71
2022/06/16 06:29:27;;;;;;;2.90;0.88;;;26.40;94.30;;;;;;5095237;28;20048;-71
2022/06/16 06:31:53;;;;;;;4.20;1.55;;;26.90;93.50;;;;;;5057790;28;20044;-72
2022/06/16 06:34:19;;;;;;;4.40;1.17;;;26.50;92.20;;;;;;5057058;28;20101;-72
2022/06/16 06:36:44;;;;;;;2.83;1.20;;;27.10;91.70;;;;;;5057494;28;20040;-71
2022/06/16 06:39:12;;;;;;;2.03;0.95;;;27.30;91.40;;;;;;5057555;28;20056;-71
2022/06/16 06:41:38;;;;;;;5.38;1.23;;;27.10;91.50;;;;;;5074352;28;20142;-71
2022/06/16 06:44:04;;;;;;;4.25;1.05;;;27.40;91.10;;;;;;5057330;28;20049;-71
2022/06/16 06:46:29;;;;;;;2.17;1.10;;;27.10;90.40;;;;;;5057160;28;20061;-71
2022/06/16 06:48:55;;;;;;;2.08;0.80;;;27.60;90.20;;;;;;5057061;28;20041;-71
2022/06/16 06:51:21;;;;;;;3.47;0.73;;;27.60;90.10;;;;;;5075234;28;20430;-72
2022/06/16 06:53:46;;;;;;;4.78;1.38;;;28.10;88.90;;;;;;5095332;28;20127;-71
2022/06/16 06:56:14;;;;;;;4.72;1.15;;;27.70;86.60;;;;;;5095529;28;20052;-71
2022/06/16 06:58:40;;;;;;;4.18;1.10;;;27.50;87.80;;;;;;5077483;28;20479;-71
2022/06/16 07:01:06;;;;;;;1.85;0.88;;;28.10;88.00;;;;;;5077565;28;20056;-72
2022/06/16 07:03:32;;;;;;;3.40;0.80;;;28.40;86.70;;;;;;5077320;28;20044;-71
2022/06/16 07:06:01;;;;;;;2.92;1.10;;;28.70;84.70;;;;;;5076847;28;20173;-71
2022/06/16 07:08:28;;;;;;;1.42;0.70;;;28.20;84.40;;;;;;5059669;28;20118;-71
2022/06/16 07:10:54;;;;;;;2.08;1.13;;;28.20;86.40;;;;;;5095026;28;20069;-71
2022/06/16 07:13:20;;;;;;;3.17;0.98;;;28.70;85.20;;;;;;5077556;28;20127;-71
2022/06/16 07:15:46;;;;;;;5.20;0.90;;;28.90;83.70;;;;;;5094425;28;20460;-72
2022/06/16 07:18:12;;;;;;;5.75;0.93;;;28.80;82.70;;;;;;5077419;28;20115;-72
2022/06/16 07:20:38;;;;;;;1.45;0.55;;;29.10;81.50;;;;;;5062895;28;20557;-72
2022/06/16 07:23:03;;;;;;;3.13;0.65;;;28.90;80.80;;;;;;5057492;28;20372;-71
2022/06/16 07:25:29;;;;;;;2.92;1.08;;;28.90;80.00;;;;;;5056935;28;20052;-72
2022/06/16 07:27:56;;;;;;;2.30;0.88;;;28.60;80.90;;;;;;5057535;28;20048;-71
2022/06/16 07:30:23;;;;;;;2.50;0.85;;;28.20;79.50;;;;;;5056951;28;20045;-72
2022/06/16 07:32:50;;;;;;;3.08;0.80;;;28.40;79.50;;;;;;5074500;28;20044;-71
2022/06/16 07:35:18;;;;;;;3.25;0.80;;;28.20;81.10;;;;;;5057098;28;20128;-71
2022/06/16 07:37:44;;;;;;;2.92;0.80;;;28.70;80.60;;;;;;5057282;28;20084;-73
2022/06/16 07:40:11;;;;;;;1.77;0.65;;;29.20;79.90;;;;;;5074709;28;20075;-71
2022/06/16 07:42:37;;;;;;;3.55;0.80;;;29.40;79.70;;;;;;5074674;28;20067;-71
2022/06/16 07:45:03;;;;;;;2.65;0.73;;;29.60;78.90;;;;;;5056658;28;20464;-72
2022/06/16 07:47:28;;;;;;;2.13;0.60;;;29.20;76.20;;;;;;5084676;28;20451;-72
2022/06/16 07:49:55;;;;;;;1.27;0.80;;;28.40;76.00;;;;;;5060531;28;20044;-71
2022/06/16 07:52:21;;;;;;;2.90;0.70;;;28.50;75.30;;;;;;5056767;28;20044;-71
2022/06/16 07:54:49;;;;;;;4.00;0.77;;;28.50;75.80;;;;;;5056500;28;20468;-71
2022/06/16 07:57:14;;;;;;;2.33;0.70;;;28.40;76.20;;;;;;5056956;28;20052;-71
2022/06/16 07:59:40;;;;;;;2.78;0.45;;;28.70;77.60;;;;;;5077552;28;20049;-71
2022/06/16 08:02:06;;;;;;;2.08;0.60;;;28.80;74.60;;;;;;5060118;28;20040;-70
2022/06/16 08:04:32;;;;;;;2.60;1.17;;;28.80;75.20;;;;;;5043508;28;20067;-72
2022/06/16 08:07:00;;;;;;;1.45;0.50;;;28.40;75.00;;;;;;5060346;28;20048;-72
2022/06/16 08:09:27;;;;;;;2.03;0.60;;;28.50;75.70;;;;;;5060264;28;20479;-71
2022/06/16 08:12:06;;;;;;;3.78;0.95;;;28.70;76.50;;;;;;5077979;28;20037;-71
2022/06/16 08:14:32;;;;;;;2.25;0.82;;;28.90;76.10;;;;;;5059939;28;20056;-71
2022/06/16 08:16:59;;;;;;;2.20;0.57;;;28.70;73.60;;;;;;5066325;28;20044;-71
2022/06/16 08:19:25;;;;;;;2.15;0.80;;;28.20;75.30;;;;;;5068070;28;20106;-72
2022/06/16 08:21:51;;;;;;;1.60;0.77;;;28.10;74.00;;;;;;5059684;28;20415;-72
2022/06/16 08:24:17;;;;;;;4.05;0.90;;;28.00;74.40;;;;;;5059775;28;20048;-71
2022/06/16 08:26:44;;;;;;;3.53;1.05;;;28.10;75.10;;;;;;5059773;28;20036;-72
2022/06/16 08:29:12;;;;;;;2.30;0.80;;;28.00;74.90;;;;;;5059760;28;20036;-71
2022/06/16 08:31:38;;;;;;;2.60;0.88;;;28.10;76.60;;;;;;5060152;28;20080;-71
2022/06/16 08:34:05;;;;;;;1.48;0.80;;;28.40;75.60;;;;;;5072149;28;20043;-71
2022/06/16 08:36:31;;;;;;;2.80;0.90;;;28.30;74.50;;;;;;5097536;28;20123;-69
2022/06/16 08:38:57;;;;;;;3.03;0.70;;;27.90;75.00;;;;;;5097712;28;20127;-69
2022/06/16 08:41:33;;;;;;;5.43;1.42;;;27.90;75.30;;;;;;5079450;28;20097;-69
2022/06/16 08:44:11;;;;;;;3.22;1.20;;;27.80;75.10;;;;;;5079387;28;20100;-69
2022/06/16 08:46:43;;;;;;;1.70;0.80;;;27.50;75.40;;;;;;5075552;28;20041;-68
2022/06/16 08:49:29;;;;;;;2.00;0.90;;;27.40;77.10;;;;;;5059249;28;20048;-69
2022/06/16 08:52:11;;;;;;;5.88;1.38;;;27.30;75.90;;;;;;5077157;28;20033;-71
2022/06/16 08:54:46;;;;;;;3.22;1.05;;;27.00;74.80;;;;;;5058963;28;20052;-71
2022/06/16 08:57:52;;;;;;;3.65;0.93;;;26.60;75.80;;;;;;5059534;28;20098;-71
2022/06/16 09:00:31;;;;;;;3.55;0.80;;;26.70;77.30;;;;;;5042159;28;20052;-72
2022/06/16 09:03:20;;;;;;;1.88;0.70;;;26.80;77.10;;;;;;5075032;28;20051;-71
2022/06/16 09:06:01;;;;;;;2.28;0.75;;;26.80;76.60;;;;;;5079254;28;20458;-71
2022/06/16 09:09:05;;;;;;;5.80;1.42;;;27.10;77.20;;;;;;5079147;28;20040;-72
2022/06/16 09:11:48;;;;;;;2.90;1.02;;;27.30;77.30;;;;;;4979048;28;20202;-72
2022/06/16 09:17:40;;;;;;;2.67;1.20;;;26.10;76.50;;;;;;5052296;28;20052;-71
2022/06/16 09:20:17;;;;;;;3.65;1.05;;;25.70;76.80;;;;;;5058831;28;20063;-71
2022/06/16 09:23:02;;;;;;;13.45;1.90;;;25.90;77.20;;;;;;5058623;28;20443;-71
2022/06/16 09:26:04;;;;;;;3.63;1.13;;;25.90;78.70;;;;;;5058628;28;20416;-71
2022/06/16 09:28:50;;;;;;;5.10;1.40;;;26.10;77.60;;;;;;5058679;28;20452;-71
2022/06/16 09:31:23;;;;;;;3.83;1.40;;;25.90;76.70;;;;;;5061796;28;20490;-71
2022/06/16 09:33:51;;;;;;;;;;;25.90;77.80;;;;;;5058780;28;20087;-71
2022/06/16 09:36:25;;;;;;;7.68;1.90;;;25.80;77.20;;;;;;5058546;28;20340;-71
2022/06/16 09:39:03;;;;;;;4.15;1.27;;;25.60;77.80;;;;;;5058636;28;20049;-71
2022/06/16 09:44:41;;;;;;;2.70;1.20;;;25.50;78.00;;;;;;5058062;28;20056;-70
2022/06/16 09:47:11;;;;;;;2.42;1.30;;;25.40;78.00;;;;;;5069446;28;20475;-71
2022/06/16 09:49:42;;;;;;;2.25;1.20;;;25.30;79.50;;;;;;5076248;28;20052;-71
2022/06/16 09:52:22;;;;;;;4.22;2.00;;;25.10;77.20;;;;;;5058390;28;20044;-71
2022/06/16 09:54:55;;;;;;;4.25;1.70;;;24.80;78.80;;;;;;5057944;28;20107;-71
2022/06/16 09:57:44;;;;;;;5.40;1.70;;;24.50;78.50;;;;;;5075657;28;20109;-71
2022/06/16 10:00:20;;;;;;;4.68;1.30;;;24.50;77.30;;;;;;5073666;28;20058;-71
2022/06/16 10:02:53;;;;;;;2.90;1.35;;;24.40;79.10;;;;;;5075658;28;20045;-70
2022/06/16 10:05:33;;;;;;;4.22;1.52;;;24.40;79.90;;;;;;5057954;28;20127;-71
2022/06/16 10:08:05;;;;;;;3.95;1.50;;;24.40;79.50;;;;;;5057969;28;20360;-71
2022/06/16 10:10:40;;;;;;;5.05;2.15;;;24.50;79.50;;;;;;5074584;28;20049;-71
2022/06/16 10:13:36;;;;;;;5.75;1.42;;;24.20;79.80;;;;;;5058048;28;20109;-71
2022/06/16 10:16:20;;;;;;;7.03;1.77;;;24.40;79.40;;;;;;5058446;28;20045;-71
2022/06/16 10:18:46;;;;;;;5.63;2.00;;;24.40;79.90;;;;;;5058184;28;20369;-71
2022/06/16 10:21:13;;;;;;;3.15;1.52;;;24.10;78.70;;;;;;5074668;28;20055;-70
2022/06/16 10:23:50;;;;;;;3.63;1.60;;;24.10;81.70;;;;;;5075324;28;20068;-70
2022/06/16 10:26:16;;;;;;;4.80;1.63;;;24.30;80.90;;;;;;5057945;28;20513;-70
2022/06/16 10:28:50;;;;;;;3.95;1.55;;;24.40;79.30;;;;;;5075344;28;20037;-70
2022/06/16 10:31:35;;;;;;;3.83;1.50;;;24.40;80.20;;;;;;5057653;28;20051;-71
2022/06/16 10:34:02;;;;;;;6.85;2.17;;;24.20;80.30;;;;;;5075003;28;20044;-71
2022/06/16 10:36:29;;;;;;;3.13;1.50;;;24.10;78.50;;;;;;5057547;28;20053;-71
2022/06/16 10:39:22;;;;;;;3.00;1.42;;;24.00;79.70;;;;;;5057533;28;20066;-71
2022/06/16 10:41:59;;;;;;;4.00;1.67;;;24.10;80.70;;;;;;5040522;28;20044;-71
2022/06/16 10:44:28;;;;;;;3.65;1.90;;;23.90;79.60;;;;;;5057268;28;20048;-71
2022/06/16 10:47:00;;;;;;;3.28;1.80;;;23.90;80.00;;;;;;5057607;28;20040;-71
2022/06/16 10:49:34;;;;;;;2.80;1.55;;;23.70;79.60;;;;;;5057629;28;20045;-71
2022/06/16 10:52:22;;;;;;;4.85;2.00;;;23.70;80.10;;;;;;5057278;28;20123;-70
2022/06/16 10:55:02;;;;;;;5.68;1.80;;;23.50;80.30;;;;;;5057095;28;20092;-71
2022/06/16 10:57:33;;;;;;;2.35;1.30;;;23.70;80.00;;;;;;5057241;28;20068;-71
2022/06/16 11:00:23;;;;;;;2.70;1.50;;;23.60;82.10;;;;;;5057202;28;20044;-70
2022/06/16 11:03:05;;;;;;;3.33;1.48;;;23.60;81.10;;;;;;5056964;28;20037;-71
2022/06/16 11:05:38;;;;;;;5.90;1.73;;;23.60;80.80;;;;;;5057177;28;20041;-70
2022/06/16 11:08:12;;;;;;;5.05;1.83;;;23.50;81.40;;;;;;5074916;28;20101;-71
2022/06/16 11:10:49;;;;;;;4.20;1.55;;;23.70;80.80;;;;;;5040710;28;20084;-70
2022/06/16 11:13:20;;;;;;;9.93;1.85;;;23.80;79.80;;;;;;5057523;28;20099;-71
2022/06/16 11:15:50;;;;;;;4.07;1.55;;;23.70;80.20;;;;;;5077397;28;20189;-71
2022/06/16 11:18:20;;;;;;;8.52;2.03;;;23.80;79.90;;;;;;5040221;28;20048;-71
2022/06/16 11:20:49;;;;;;;3.13;1.45;;;23.80;82.20;;;;;;5090439;28;20056;-71
2022/06/16 11:23:28;;;;;;;5.63;2.35;;;24.00;80.50;;;;;;5074581;28;20131;-71
2022/06/16 11:26:07;;;;;;;4.43;1.65;;;24.10;79.90;;;;;;5074742;28;20338;-71
2022/06/16 11:28:55;;;;;;;5.35;1.63;;;24.20;79.10;;;;;;5056782;28;20045;-71
2022/06/16 11:31:25;;;;;;;5.70;1.80;;;24.30;80.10;;;;;;5074882;28;20068;-71
2022/06/16 11:34:08;;;;;;;3.88;1.98;;;24.00;79.00;;;;;;5084041;28;20108;-71
2022/06/16 11:37:17;;;;;;;5.03;1.40;;;23.60;79.90;;;;;;5080855;28;20047;-71
2022/06/16 11:40:06;;;;;;;4.80;1.85;;;23.30;80.00;;;;;;5081162;28;20055;-71
2022/06/16 11:42:49;;;;;;;6.10;2.38;;;23.20;81.10;;;;;;5080805;28;20530;-71
2022/06/16 11:45:35;;;;;;;4.30;1.80;;;23.30;80.10;;;;;;5080223;28;20048;-71
2022/06/16 11:48:29;;;;;;;4.90;1.75;;;23.00;80.80;;;;;;5060750;28;20044;-70
2022/06/16 11:51:13;;;;;;;4.32;1.80;;;23.10;80.90;;;;;;5078201;28;20045;-71
2022/06/16 11:54:04;;;;;;;5.57;1.75;;;23.10;82.10;;;;;;5078237;28;20441;-71
2022/06/16 11:57:06;;;;;;;3.33;1.40;;;23.40;82.40;;;;;;5078288;28;20068;-71
2022/06/16 11:59:53;;;;;;;4.75;1.23;;;23.80;81.30;;;;;;5060453;28;20377;-71
2022/06/16 12:02:39;;;;;;;2.58;1.33;;;24.10;81.80;;;;;;5077858;28;20367;-70
2022/06/16 12:05:35;;;;;;;9.60;1.75;;;24.40;84.10;;;;;;5061004;28;20086;-71
2022/06/16 12:08:17;;;;;;;4.35;1.80;;;24.30;79.50;;;;;;5078724;28;20403;-70
2022/06/16 12:10:52;;;;;;;3.50;1.45;;;24.40;77.80;;;;;;5077514;28;20040;-71
2022/06/16 12:13:35;;;;;;;4.53;1.63;;;24.80;79.20;;;;;;5060363;28;20129;-71
2022/06/16 12:16:31;;;;;;;3.75;1.58;;;25.10;77.80;;;;;;5043148;28;20158;-71
2022/06/16 12:19:11;;;;;;;4.82;2.30;;;25.50;78.70;;;;;;5060297;28;20040;-70
2022/06/16 12:21:53;;;;;;;3.00;1.52;;;25.60;76.00;;;;;;5060152;28;20044;-71
2022/06/16 12:24:30;;;;;;;3.05;1.75;;;25.70;77.10;;;;;;5077407;28;20451;-71
2022/06/16 12:27:16;;;;;;;2.90;1.58;;;25.60;75.60;;;;;;5077561;28;20044;-72
2022/06/16 12:29:58;;;;;;;1.83;1.23;;;25.20;75.50;;;;;;5070648;28;20048;-71
2022/06/16 12:32:23;;;;;;;4.63;2.05;;;25.40;78.50;;;;;;5079545;28;20468;-70
2022/06/16 12:35:06;;;;;;;3.30;1.70;;;25.60;77.20;;;;;;5079746;28;20044;-71
2022/06/16 12:37:37;;;;;;;5.20;1.33;;;25.90;78.60;;;;;;5079954;28;20044;-71
2022/06/16 12:40:12;;;;;;;3.10;1.50;;;26.20;78.40;;;;;;5080521;28;20133;-70
2022/06/16 12:42:44;;;;;;;2.78;1.52;;;26.30;76.50;;;;;;5079584;28;20101;-71
2022/06/16 12:45:21;;;;;;;3.03;1.13;;;26.10;75.50;;;;;;5082812;28;20457;-71
2022/06/16 12:47:56;;;;;;;4.75;1.58;;;25.80;76.40;;;;;;5079888;28;20063;-71
2022/06/16 12:50:37;;;;;;;3.20;1.33;;;25.70;76.00;;;;;;5080056;28;20109;-70
2022/06/16 12:53:24;;;;;;;2.88;1.40;;;25.70;76.40;;;;;;5097506;28;20062;-71
2022/06/16 12:55:55;;;;;;;4.47;1.45;;;25.70;76.00;;;;;;5079143;28;20411;-71
2022/06/16 12:58:31;;;;;;;4.72;1.38;;;25.60;77.00;;;;;;5079367;28;20048;-71
2022/06/16 13:01:08;;;;;;;5.78;1.98;;;25.70;76.50;;;;;;5066565;28;20462;-71
2022/06/16 13:04:02;;;;;;;2.78;1.58;;;25.70;76.80;;;;;;5058900;28;20080;-71
2022/06/16 13:06:30;;;;;;;5.15;1.35;;;25.50;75.70;;;;;;5076808;28;20051;-72
2022/06/16 13:08:59;;;;;;;3.35;1.40;;;25.30;76.70;;;;;;5077126;28;20384;-70
2022/06/16 13:11:29;;;;;;;7.10;1.75;;;25.50;78.00;;;;;;5076593;28;20166;-71
2022/06/16 13:14:06;;;;;;;3.58;1.65;;;25.70;77.90;;;;;;5065238;28;20054;-71
2022/06/16 13:16:38;;;;;;;3.47;1.20;;;26.10;75.90;;;;;;5079357;28;20040;-71
2022/06/16 13:19:10;;;;;;;2.28;1.27;;;26.10;76.80;;;;;;5096815;28;20044;-71
2022/06/16 13:21:41;;;;;;;2.47;1.33;;;26.00;75.40;;;;;;5079673;28;20423;-71
2022/06/16 13:24:21;;;;;;;3.30;1.48;;;26.10;76.50;;;;;;5078890;28;20044;-71
2022/06/16 13:27:01;;;;;;;3.22;1.58;;;26.10;76.80;;;;;;5078425;28;20444;-71
2022/06/16 13:29:52;;;;;;;3.92;1.52;;;26.10;75.80;;;;;;5096622;28;20044;-71
2022/06/16 13:32:48;;;;;;;3.30;1.60;;;26.10;76.30;;;;;;5061103;28;20135;-71
2022/06/16 13:35:14;;;;;;;2.95;1.83;;;26.00;76.40;;;;;;5078311;28;20458;-71
2022/06/16 13:37:47;;;;;;;4.80;1.52;;;26.10;77.30;;;;;;5096721;28;20126;-71
2022/06/16 13:40:27;;;;;;;4.28;1.48;;;26.10;76.30;;;;;;5096656;28;20055;-71
2022/06/16 13:42:55;;;;;;;3.63;1.50;;;26.20;75.80;;;;;;5060098;28;20084;-71
2022/06/16 13:45:30;;;;;;;4.75;1.38;;;26.00;76.40;;;;;;5075803;28;20057;-71